Time;durP1;ratioP1;P1;durP2;ratioP2;P2;SDS_P1;SDS_P2;PMS_P1;PMS_P2;Temp;Humidity;BMP_temperature;BMP_pressure;BME280_temperature;BME280_humidity;BME280_pressure;Samples;Min_cycle;Max_cycle;Signal;HPM_P1;HPM_P2
2024/04/11 00:01:28;;;;;;;6.90;0.80;;;;;;;7.03;42.76;102643.28;5390694;26;20018;-72
2024/04/11 00:03:55;;;;;;;4.75;0.65;;;;;;;7.07;43.28;102652.00;5383400;26;20019;-69
2024/04/11 00:06:20;;;;;;;3.85;0.85;;;;;;;6.92;43.28;102663.19;5381030;26;20021;-70
2024/04/11 00:08:47;;;;;;;2.13;0.52;;;;;;;7.53;42.25;102654.66;5393158;26;20019;-71
2024/04/11 00:11:13;;;;;;;1.73;0.90;;;;;;;7.29;42.41;102643.38;5382164;26;20154;-70
2024/04/11 00:13:38;;;;;;;3.20;0.63;;;;;;;8.03;41.66;102643.44;5395717;26;20019;-71
2024/04/11 00:16:04;;;;;;;5.97;1.27;;;;;;;7.93;41.82;102639.09;5387018;26;20678;-70
2024/04/11 00:18:30;;;;;;;4.43;0.40;;;;;;;7.80;42.30;102630.44;5388471;26;20018;-71
2024/04/11 00:20:56;;;;;;;3.95;0.60;;;;;;;7.73;41.95;102633.91;5397016;26;20013;-71
2024/04/11 00:23:22;;;;;;;3.58;0.77;;;;;;;7.65;42.52;102628.69;5395291;26;20702;-72
2024/04/11 00:25:58;;;;;;;8.40;1.35;;;;;;;7.52;42.78;102629.53;5375601;26;20013;-71
2024/04/11 00:28:25;;;;;;;1.90;0.40;;;;;;;7.31;42.86;102617.34;5394441;26;20126;-72
2024/04/11 00:30:52;;;;;;;2.65;0.68;;;;;;;7.39;42.93;102612.16;5374991;26;20047;-71
2024/04/11 00:33:18;;;;;;;6.45;0.98;;;;;;;7.97;42.09;102617.41;5399171;26;20014;-71
2024/04/11 00:35:49;;;;;;;2.08;0.68;;;;;;;7.60;42.60;102612.22;5392184;26;20006;-67
2024/04/11 00:38:16;;;;;;;3.85;0.50;;;;;;;7.88;42.47;102601.78;5388902;26;20006;-67
2024/04/11 00:40:42;;;;;;;2.47;0.70;;;;;;;7.78;42.26;102594.84;5398451;26;20002;-70
2024/04/11 00:43:11;;;;;;;3.83;0.50;;;;;;;7.93;42.06;102597.44;5375562;26;20223;-71
2024/04/11 00:45:47;;;;;;;5.57;1.10;;;;;;;7.68;42.76;102592.25;5397210;26;20021;-69
2024/04/11 00:48:15;;;;;;;6.40;0.90;;;;;;;7.52;42.80;102593.09;5376545;26;20381;-73
2024/04/11 00:50:42;;;;;;;3.95;0.70;;;;;;;7.54;42.55;102591.38;5399437;26;20021;-72
2024/04/11 00:53:08;;;;;;;4.25;0.63;;;;;;;7.62;42.69;102600.06;5388573;26;20966;-72
2024/04/11 00:55:35;;;;;;;8.20;0.38;;;;;;;8.10;42.23;102608.69;5391386;26;20004;-74
2024/04/11 00:58:03;;;;;;;4.95;0.70;;;;;;;7.87;42.50;102595.72;5384016;26;20982;-71
2024/04/11 01:00:29;;;;;;;4.30;0.88;;;;;;;7.51;43.24;102606.97;5388008;26;20007;-71
2024/04/11 01:02:56;;;;;;;2.28;0.60;;;;;;;8.18;41.79;102607.81;5400832;26;20009;-72
2024/04/11 01:05:21;;;;;;;1.63;0.60;;;;;;;8.04;42.46;102610.44;5385965;26;20011;-71
2024/04/11 01:07:54;;;;;;;3.58;0.73;;;;;;;7.84;42.40;102594.84;5392621;26;20022;-72
2024/04/11 01:10:21;;;;;;;9.02;1.00;;;;;;;8.23;42.14;102590.47;5391386;26;20010;-72
2024/04/11 01:12:48;;;;;;;4.03;0.50;;;;;;;7.96;42.45;102584.44;5411966;26;20112;-71
2024/04/11 01:15:14;;;;;;;3.40;0.60;;;;;;;7.73;42.75;102590.53;5379902;26;20011;-72
2024/04/11 01:17:40;;;;;;;2.88;0.43;;;;;;;7.77;43.13;102595.72;5399259;26;20002;-72
2024/04/11 01:20:06;;;;;;;6.30;0.75;;;;;;;7.94;42.97;102601.78;5377037;26;20020;-72
2024/04/11 01:22:37;;;;;;;6.50;0.68;;;;;;;8.03;42.80;102593.97;5419246;26;20003;-72
2024/04/11 01:25:03;;;;;;;2.40;0.40;;;;;;;8.46;42.10;102595.59;5398236;26;20674;-72
2024/04/11 01:27:29;;;;;;;7.35;1.15;;;;;;;8.06;42.64;102586.13;5398786;26;22181;-71
2024/04/11 01:29:55;;;;;;;4.00;0.52;;;;;;;8.22;42.59;102580.88;5337210;26;20025;-71
2024/04/11 01:32:21;;;;;;;4.80;0.35;;;;;;;8.18;42.59;102559.19;5398902;26;20007;-71
2024/04/11 01:34:46;;;;;;;3.08;0.50;;;;;;;8.18;42.39;102551.38;5371248;26;20468;-71
2024/04/11 01:37:12;;;;;;;2.47;0.52;;;;;;;8.25;42.72;102537.47;5375282;26;22744;-72
2024/04/11 01:39:37;;;;;;;4.82;0.52;;;;;;;7.57;43.88;102552.34;5399763;26;20104;-70
2024/04/11 01:42:04;;;;;;;10.43;0.40;;;;;;;8.08;43.04;102541.88;5379235;26;20007;-74
2024/04/11 01:44:31;;;;;;;3.85;0.43;;;;;;;8.11;43.27;102540.13;5389716;26;20003;-74
2024/04/11 01:46:59;;;;;;;0.88;0.38;;;;;;;7.59;43.53;102547.16;5353441;26;20014;-74
2024/04/11 01:49:30;;;;;;;5.20;0.35;;;;;;;7.93;43.21;102540.16;5393551;26;20002;-69
2024/04/11 01:51:56;;;;;;;6.82;1.00;;;;;;;8.42;42.42;102532.19;5353281;26;20813;-72
2024/04/11 01:54:24;;;;;;;4.10;0.45;;;;;;;7.80;43.07;102526.31;5397978;26;20007;-72
2024/04/11 01:56:50;;;;;;;9.98;1.23;;;;;;;8.20;43.01;102525.31;5390988;26;22383;-69
2024/04/11 01:59:19;;;;;;;2.92;0.20;;;;;;;8.27;42.68;102533.13;5378641;26;20018;-69
2024/04/11 02:01:44;;;;;;;3.40;0.52;;;;;;;8.05;43.20;102545.34;5392388;26;20084;-69
2024/04/11 02:04:12;;;;;;;4.93;0.50;;;;;;;8.34;42.90;102554.81;5383762;26;20046;-71
2024/04/11 02:06:39;;;;;;;2.80;0.30;;;;;;;8.32;43.15;102533.09;5388002;26;20013;-74
2024/04/11 02:09:09;;;;;;;6.90;0.52;;;;;;;8.45;42.66;102515.66;5392089;26;20014;-70
2024/04/11 02:11:38;;;;;;;6.03;0.35;;;;;;;7.57;44.55;102521.13;5385757;26;20021;-67
2024/04/11 02:14:04;;;;;;;5.65;0.85;;;;;;;7.84;44.73;102522.81;5371092;26;20006;-70
2024/04/11 02:16:34;;;;;;;2.00;0.57;;;;;;;8.24;43.70;102511.41;5389557;26;20026;-69
2024/04/11 02:19:06;;;;;;;2.83;1.05;;;;;;;8.43;43.41;102501.81;5385238;26;20238;-70
2024/04/11 02:21:33;;;;;;;5.25;0.60;;;;;;;8.29;43.67;102484.50;5383698;26;20799;-70
2024/04/11 02:23:59;;;;;;;2.33;0.20;;;;;;;8.26;43.92;102476.69;5391657;26;20002;-73
2024/04/11 02:26:25;;;;;;;2.55;0.32;;;;;;;8.12;44.13;102481.09;5392484;26;20136;-73
2024/04/11 02:28:50;;;;;;;3.90;0.90;;;;;;;8.48;43.48;102480.03;5386265;26;20010;-74
2024/04/11 02:31:16;;;;;;;5.95;0.63;;;;;;;8.37;43.56;102466.22;5391384;26;22412;-74
2024/04/11 02:33:43;;;;;;;4.53;0.45;;;;;;;8.43;43.56;102476.59;5389335;26;20002;-70
2024/04/11 02:36:08;;;;;;;9.15;0.85;;;;;;;7.97;44.33;102482.00;5387422;26;20398;-71
2024/04/11 02:38:34;;;;;;;5.28;0.47;;;;;;;8.41;43.83;102483.56;5389494;26;20444;-70
2024/04/11 02:40:59;;;;;;;2.45;0.20;;;;;;;8.08;44.65;102484.56;5384717;26;20003;-70
2024/04/11 02:43:25;;;;;;;1.40;0.28;;;;;;;8.06;44.25;102481.97;5386211;26;20071;-72
2024/04/11 02:45:53;;;;;;;3.42;0.32;;;;;;;8.72;43.43;102488.63;5399395;26;20433;-71
2024/04/11 02:48:18;;;;;;;2.83;0.75;;;;;;;8.47;43.75;102475.72;5380451;26;20020;-70
2024/04/11 02:50:44;;;;;;;2.80;0.30;;;;;;;8.54;43.58;102484.38;5395434;26;20431;-70
2024/04/11 02:53:10;;;;;;;6.47;0.35;;;;;;;8.35;44.37;102487.03;5386705;26;20017;-71
2024/04/11 02:55:40;;;;;;;5.63;0.60;;;;;;;7.69;45.29;102482.09;5394325;26;20010;-70
2024/04/11 02:58:06;;;;;;;5.30;0.47;;;;;;;8.38;44.19;102473.13;5386073;26;20044;-71
2024/04/11 03:00:31;;;;;;;5.82;0.57;;;;;;;8.24;44.44;102481.03;5368458;26;20018;-71
2024/04/11 03:02:59;;;;;;;2.88;0.45;;;;;;;8.06;44.96;102460.28;5395955;26;20006;-71
2024/04/11 03:05:25;;;;;;;4.03;0.88;;;;;;;7.97;44.97;102470.72;5338741;26;20014;-71
2024/04/11 03:07:51;;;;;;;9.95;0.63;;;;;;;8.42;44.33;102464.44;5396654;26;20023;-71
2024/04/11 03:10:16;;;;;;;8.70;0.63;;;;;;;8.70;43.71;102459.06;5360984;26;20664;-71
2024/04/11 03:12:43;;;;;;;4.97;0.30;;;;;;;8.56;44.10;102464.34;5394327;26;20003;-73
2024/04/11 03:15:09;;;;;;;3.90;0.52;;;;;;;8.34;44.64;102467.09;5377597;26;20011;-71
2024/04/11 03:17:38;;;;;;;6.10;0.40;;;;;;;8.30;44.83;102461.91;5394272;26;20011;-72
2024/04/11 03:20:04;;;;;;;2.28;0.30;;;;;;;8.07;44.69;102452.47;5388445;26;20014;-71
2024/04/11 03:22:30;;;;;;;7.20;0.65;;;;;;;7.92;45.92;102447.31;5369729;26;20002;-71
2024/04/11 03:24:56;;;;;;;5.10;0.40;;;;;;;8.19;44.72;102451.53;5393051;26;20353;-71
2024/04/11 03:27:21;;;;;;;9.95;0.55;;;;;;;8.39;44.82;102448.81;5357314;26;20018;-71
2024/04/11 03:29:47;;;;;;;1.92;0.25;;;;;;;8.26;45.26;102457.59;5394248;26;20019;-71
2024/04/11 03:32:12;;;;;;;3.85;0.73;;;;;;;8.06;45.54;102458.53;5380733;26;20042;-70
2024/04/11 03:34:39;;;;;;;5.25;0.20;;;;;;;8.22;45.50;102456.72;5392450;26;20026;-71
2024/04/11 03:37:05;;;;;;;1.30;0.32;;;;;;;8.59;44.98;102468.69;5382215;26;20812;-70
2024/04/11 03:39:31;;;;;;;4.45;0.30;;;;;;;8.81;44.63;102452.06;5401567;26;20015;-71
2024/04/11 03:41:57;;;;;;;7.55;1.02;;;;;;;8.55;45.04;102455.66;5390002;26;20013;-70
2024/04/11 03:44:22;;;;;;;5.15;0.52;;;;;;;7.87;46.33;102454.25;5401789;26;20497;-70
2024/04/11 03:46:47;;;;;;;3.08;0.40;;;;;;;8.36;45.80;102454.06;5405786;26;20009;-70
2024/04/11 03:49:14;;;;;;;6.70;0.60;;;;;;;8.34;45.73;102461.88;5404545;26;20462;-71
2024/04/11 03:51:41;;;;;;;6.10;0.73;;;;;;;8.29;45.80;102465.38;5394445;26;20019;-74
2024/04/11 03:54:09;;;;;;;3.60;0.63;;;;;;;8.16;46.27;102469.78;5392087;26;20014;-72
2024/04/11 03:56:34;;;;;;;5.03;0.52;;;;;;;8.48;45.41;102477.44;5389145;26;20030;-71
2024/04/11 03:59:03;;;;;;;2.60;0.10;;;;;;;7.92;46.44;102479.41;5395045;26;20079;-71
2024/04/11 04:01:30;;;;;;;3.92;0.20;;;;;;;8.46;45.41;102483.53;5378962;26;20010;-67
2024/04/11 04:04:07;;;;;;;4.47;0.55;;;;;;;8.57;45.14;102482.59;5400271;26;20034;-66
2024/04/11 04:06:36;;;;;;;4.50;0.68;;;;;;;7.92;46.66;102488.97;5378259;26;20020;-66
2024/04/11 04:09:07;;;;;;;6.05;0.63;;;;;;;7.99;46.28;102484.63;5396163;26;20009;-66
2024/04/11 04:11:34;;;;;;;3.17;0.40;;;;;;;8.12;45.91;102483.69;5388969;26;20010;-70
2024/04/11 04:14:02;;;;;;;5.45;0.30;;;;;;;8.08;45.88;102458.53;5373719;26;20040;-70
2024/04/11 04:16:28;;;;;;;3.60;0.20;;;;;;;8.42;45.81;102459.22;5385541;26;20018;-72
2024/04/11 04:18:54;;;;;;;4.18;0.30;;;;;;;8.17;46.49;102468.03;5391656;26;20007;-72
2024/04/11 04:21:20;;;;;;;5.72;0.63;;;;;;;7.63;48.21;102463.88;5391842;26;20014;-71
2024/04/11 04:23:50;;;;;;;4.28;0.43;;;;;;;8.00;47.66;102466.34;5389869;26;20674;-71
2024/04/11 04:26:20;;;;;;;5.22;0.25;;;;;;;8.10;47.51;102478.47;5386326;26;20011;-72
2024/04/11 04:28:45;;;;;;;6.18;0.50;;;;;;;8.18;47.10;102472.38;5390497;25;20744;-72
2024/04/11 04:31:11;;;;;;;1.92;0.47;;;;;;;8.07;48.05;102465.50;5393390;26;20055;-73
2024/04/11 04:33:37;;;;;;;2.88;0.45;;;;;;;7.68;49.91;102474.28;5395389;26;20002;-73
2024/04/11 04:36:03;;;;;;;2.85;0.68;;;;;;;7.56;49.95;102485.59;5411927;26;20415;-72
2024/04/11 04:38:29;;;;;;;3.33;0.57;;;;;;;7.58;49.82;102481.25;5391177;26;23673;-73
2024/04/11 04:40:55;;;;;;;2.83;0.63;;;;;;;8.14;49.55;102479.34;5392448;26;20664;-71
2024/04/11 04:43:21;;;;;;;5.22;0.63;;;;;;;7.58;51.88;102482.97;5381077;26;20013;-73
2024/04/11 04:45:49;;;;;;;7.53;0.47;;;;;;;7.45;52.76;102493.38;5410034;26;20461;-71
2024/04/11 04:48:15;;;;;;;2.72;0.60;;;;;;;7.40;53.09;102481.22;5412864;26;20082;-72
2024/04/11 04:50:41;;;;;;;3.38;0.30;;;;;;;7.38;54.19;102489.03;5398232;26;20054;-69
2024/04/11 04:53:07;;;;;;;4.97;0.90;;;;;;;7.29;53.96;102483.84;5397369;26;20464;-70
2024/04/11 04:55:33;;;;;;;7.43;0.68;;;;;;;6.75;55.25;102483.78;5389826;26;20010;-69
2024/04/11 04:57:59;;;;;;;3.53;1.02;;;;;;;7.09;54.74;102494.25;5387384;26;20066;-70
2024/04/11 05:00:27;;;;;;;5.53;1.17;;;;;;;6.94;54.75;102476.03;5359153;26;20010;-71
2024/04/11 05:02:54;;;;;;;4.75;0.52;;;;;;;7.12;54.62;102483.84;5404719;26;20022;-70
2024/04/11 05:05:20;;;;;;;5.18;0.70;;;;;;;7.32;54.26;102487.28;5373550;26;20014;-70
2024/04/11 05:07:51;;;;;;;4.78;1.23;;;;;;;7.52;53.49;102496.81;5426826;26;20006;-70
2024/04/11 05:10:20;;;;;;;1.30;0.45;;;;;;;7.25;54.27;102501.19;5427011;26;19999;-70
2024/04/11 05:12:49;;;;;;;5.55;0.75;;;;;;;7.01;55.14;102501.16;5431728;26;20000;-74
2024/04/11 05:15:18;;;;;;;3.00;0.43;;;;;;;7.07;55.31;102493.38;5420769;26;19994;-71
2024/04/11 05:17:43;;;;;;;6.82;0.77;;;;;;;7.35;54.58;102481.22;5424697;26;20155;-71
2024/04/11 05:20:21;;;;;;;4.07;0.55;;;;;;;7.36;54.56;102477.78;5415098;26;21171;-71
2024/04/11 05:22:51;;;;;;;6.75;0.32;;;;;;;7.02;55.84;102482.97;5403439;26;20049;-70
2024/04/11 05:25:21;;;;;;;4.72;0.95;;;;;;;7.18;56.30;102481.25;5387697;26;19998;-72
2024/04/11 05:27:46;;;;;;;6.10;0.80;;;;;;;7.03;56.37;102496.84;5397806;26;20008;-72
2024/04/11 05:30:12;;;;;;;2.25;1.35;;;;;;;7.07;57.17;102499.44;5382823;26;20044;-72
2024/04/11 05:32:47;;;;;;;3.20;1.00;;;;;;;6.91;57.80;102501.16;5399560;26;20008;-73
2024/04/11 05:35:12;;;;;;;5.57;1.13;;;;;;;6.74;58.54;102523.66;5382938;26;20010;-74
2024/04/11 05:37:41;;;;;;;6.78;0.90;;;;;;;7.03;57.92;102528.03;5389923;26;20003;-69
2024/04/11 05:40:07;;;;;;;3.20;0.80;;;;;;;6.89;58.45;102549.69;5393768;26;20003;-69
2024/04/11 05:42:35;;;;;;;3.35;0.60;;;;;;;6.83;58.78;102554.84;5388053;25;20010;-69
2024/04/11 05:45:03;;;;;;;4.20;0.70;;;;;;;6.95;57.94;102567.00;5387630;26;20029;-70
2024/04/11 05:47:30;;;;;;;6.95;1.02;;;;;;;6.78;59.09;102585.16;5388165;26;20499;-70
2024/04/11 05:49:57;;;;;;;4.65;0.32;;;;;;;6.77;58.97;102586.00;5386832;26;20007;-71
2024/04/11 05:52:23;;;;;;;5.72;0.75;;;;;;;7.11;58.32;102588.72;5386752;26;20087;-70
2024/04/11 05:54:51;;;;;;;6.85;0.68;;;;;;;6.84;59.75;102592.09;5388749;26;21259;-70
2024/04/11 05:57:17;;;;;;;2.75;0.52;;;;;;;7.18;58.99;102593.06;5349708;26;20443;-71
2024/04/11 05:59:45;;;;;;;5.35;0.60;;;;;;;7.09;59.00;102588.72;5398705;26;20761;-71
2024/04/11 06:02:13;;;;;;;4.80;1.08;;;;;;;6.81;60.00;102594.69;5388413;26;20007;-71
2024/04/11 06:04:42;;;;;;;6.47;0.60;;;;;;;7.08;59.26;102599.09;5398822;26;20408;-74
2024/04/11 06:07:10;;;;;;;3.20;0.77;;;;;;;6.78;60.09;102597.31;5383531;26;20093;-74
2024/04/11 06:09:35;;;;;;;2.58;0.60;;;;;;;6.76;60.64;102599.03;5387127;26;20021;-73
2024/04/11 06:12:01;;;;;;;6.32;0.65;;;;;;;6.78;60.64;102605.97;5394458;26;19998;-73
2024/04/11 06:14:28;;;;;;;8.25;1.20;;;;;;;6.62;61.42;102606.75;5399839;26;20014;-73
2024/04/11 06:16:54;;;;;;;6.68;0.93;;;;;;;6.80;60.97;102606.84;5391578;26;20847;-72
2024/04/11 06:19:20;;;;;;;1.73;0.63;;;;;;;6.55;61.30;102612.78;5384788;26;19999;-72
2024/04/11 06:21:53;;;;;;;3.33;0.85;;;;;;;5.90;64.13;102620.13;5386185;26;20010;-73
2024/04/11 06:24:22;;;;;;;5.95;1.75;;;;;;;6.63;61.83;102618.88;5387916;26;20375;-72
2024/04/11 06:26:50;;;;;;;7.47;1.15;;;;;;;6.72;61.74;102618.94;5384254;26;20058;-73
2024/04/11 06:29:22;;;;;;;5.40;0.73;;;;;;;7.16;60.81;102614.75;5390906;26;20023;-72
2024/04/11 06:31:48;;;;;;;7.45;0.95;;;;;;;6.16;63.24;102614.28;5368652;26;20017;-73
2024/04/11 06:34:14;;;;;;;6.55;0.82;;;;;;;6.66;62.08;102621.50;5393439;26;20035;-73
2024/04/11 06:36:39;;;;;;;5.63;1.10;;;;;;;7.10;60.83;102618.19;5356146;26;20029;-73
2024/04/11 06:39:13;;;;;;;3.90;0.90;;;;;;;6.83;61.26;102612.03;5388114;26;20018;-72
2024/04/11 06:41:39;;;;;;;5.15;0.82;;;;;;;6.93;61.07;102623.31;5388205;26;20014;-72
2024/04/11 06:44:08;;;;;;;13.45;1.00;;;;;;;6.41;62.65;102608.38;5389402;26;20017;-72
2024/04/11 06:46:34;;;;;;;5.25;1.17;;;;;;;6.85;61.82;102614.66;5373917;26;20878;-72
2024/04/11 06:48:59;;;;;;;9.43;1.02;;;;;;;6.97;61.72;102616.41;5389400;26;20007;-72
2024/04/11 06:51:25;;;;;;;7.80;1.80;;;;;;;6.68;62.27;102609.38;5381259;26;20019;-72
2024/04/11 06:53:52;;;;;;;3.08;0.90;;;;;;;7.04;61.22;102613.84;5382253;26;20003;-75
2024/04/11 06:56:22;;;;;;;3.17;0.60;;;;;;;6.64;62.48;102611.13;5377336;26;20013;-72
2024/04/11 06:58:48;;;;;;;13.20;1.00;;;;;;;6.93;61.71;102607.72;5369711;26;20095;-73
2024/04/11 07:01:15;;;;;;;8.45;0.95;;;;;;;6.56;62.92;102596.34;5401963;26;20002;-70
2024/04/11 07:03:49;;;;;;;4.32;0.82;;;;;;;7.25;61.18;102612.16;5382023;26;20800;-73
2024/04/11 07:06:21;;;;;;;5.40;0.95;;;;;;;7.17;61.74;102612.13;5390604;26;20014;-74
2024/04/11 07:08:54;;;;;;;4.75;0.82;;;;;;;7.17;61.62;102617.31;5387583;26;20002;-73
2024/04/11 07:11:26;;;;;;;5.88;1.05;;;;;;;6.96;62.54;102623.34;5416997;26;20010;-70
2024/04/11 07:13:54;;;;;;;;;;;;;;;7.18;61.46;102619.06;5394744;26;20006;-71
2024/04/11 07:16:32;;;;;;;6.13;0.85;;;;;;;7.07;61.82;102618.19;5383090;26;19953;-71
2024/04/11 07:19:02;;;;;;;4.63;0.65;;;;;;;6.91;62.00;102625.94;5389921;26;21090;-70
2024/04/11 07:21:34;;;;;;;12.00;0.90;;;;;;;7.09;62.12;102634.66;5383914;26;20101;-70
2024/04/11 07:24:00;;;;;;;;;;;;;;;7.31;61.96;102631.25;5391696;26;20052;-70
2024/04/11 07:26:31;;;;;;;2.90;0.82;;;;;;;7.16;62.71;102646.81;5379814;26;19924;-70
2024/04/11 07:29:03;;;;;;;9.25;1.30;;;;;;;7.18;62.16;102646.81;5390553;26;20045;-69
2024/04/11 07:31:31;;;;;;;9.30;1.70;;;;;;;7.41;61.88;102646.84;5391812;26;20002;-69
2024/04/11 07:34:02;;;;;;;6.97;1.35;;;;;;;7.77;60.92;102650.38;5419222;26;20010;-69
2024/04/11 07:36:38;;;;;;;7.78;1.38;;;;;;;7.56;61.48;102657.31;5356071;26;20003;-70
2024/04/11 07:39:04;;;;;;;2.55;0.77;;;;;;;7.76;61.37;102665.16;5383404;26;19998;-70
2024/04/11 07:41:44;;;;;;;8.40;1.63;;;;;;;7.81;60.48;102662.53;5383174;26;20237;-71
2024/04/11 07:44:11;;;;;;;3.78;1.23;;;;;;;7.32;61.49;102668.50;5388339;26;20057;-71
2024/04/11 07:46:37;;;;;;;4.03;1.63;;;;;;;8.18;60.34;102672.94;5376545;26;20007;-69
2024/04/11 07:49:07;;;;;;;8.52;1.02;;;;;;;7.68;60.84;102672.94;5388981;26;20012;-71
2024/04/11 07:51:33;;;;;;;8.63;2.10;;;;;;;7.37;61.83;102663.31;5388807;26;20023;-70
2024/04/11 07:54:03;;;;;;;11.15;1.63;;;;;;;7.66;61.76;102671.19;5384675;26;20011;-70
2024/04/11 07:56:28;;;;;;;9.98;1.77;;;;;;;7.90;61.00;102676.41;5384326;26;20010;-69
2024/04/11 07:58:56;;;;;;;10.27;1.90;;;;;;;8.18;60.45;102672.94;5390056;26;21374;-69
2024/04/11 08:01:31;;;;;;;6.65;1.23;;;;;;;7.67;61.53;102683.38;5378980;26;20003;-68
2024/04/11 08:03:58;;;;;;;4.97;1.95;;;;;;;7.56;62.40;102667.72;5392979;26;20025;-70
2024/04/11 08:06:24;;;;;;;5.10;1.92;;;;;;;7.63;62.20;102679.88;5376269;26;20172;-69
2024/04/11 08:08:51;;;;;;;5.32;1.50;;;;;;;7.60;62.32;102669.47;5390152;26;19999;-70
2024/04/11 08:11:16;;;;;;;1.92;1.67;;;;;;;7.29;63.35;102679.78;5360434;26;20021;-71
2024/04/11 08:13:43;;;;;;;8.40;2.63;;;;;;;7.35;63.58;102685.84;5378684;26;20018;-70
2024/04/11 08:16:10;;;;;;;7.90;2.25;;;;;;;7.53;62.62;102686.78;5382630;26;20018;-72
2024/04/11 08:18:37;;;;;;;13.10;2.60;;;;;;;7.70;62.60;102699.84;5390903;26;20001;-71
2024/04/11 08:21:07;;;;;;;7.68;1.88;;;;;;;7.87;62.32;102701.56;5397580;26;20002;-71
2024/04/11 08:23:40;;;;;;;9.38;3.22;;;;;;;7.97;61.65;102690.31;5393617;26;20040;-71
2024/04/11 08:26:07;;;;;;;13.25;2.90;;;;;;;7.78;62.66;102701.56;5369472;26;20014;-71
2024/04/11 08:28:37;;;;;;;8.70;2.67;;;;;;;8.59;60.93;102711.09;5387388;26;20091;-71
2024/04/11 08:31:06;;;;;;;7.05;2.47;;;;;;;8.28;61.76;102708.53;5399782;26;20006;-71
2024/04/11 08:33:36;;;;;;;9.07;2.45;;;;;;;7.79;62.58;102711.13;5358721;26;20073;-71
2024/04/11 08:36:09;;;;;;;6.78;2.33;;;;;;;7.83;62.36;102724.16;5393763;26;20181;-71
2024/04/11 08:38:36;;;;;;;7.40;2.63;;;;;;;7.99;62.59;102719.81;5378298;26;20025;-71
2024/04/11 08:41:09;;;;;;;10.32;2.85;;;;;;;8.19;62.50;102711.16;5387863;26;20024;-70
2024/04/11 08:43:35;;;;;;;12.18;3.22;;;;;;;8.35;61.56;102718.06;5393034;25;20100;-70
2024/04/11 08:46:06;;;;;;;5.72;2.33;;;;;;;9.19;59.95;102714.38;5399560;26;20034;-71
2024/04/11 08:48:43;;;;;;;9.20;2.55;;;;;;;9.02;59.58;102710.97;5356982;26;20003;-71
2024/04/11 08:51:21;;;;;;;12.00;2.50;;;;;;;8.94;59.81;102709.28;5364134;26;20441;-70
2024/04/11 08:53:50;;;;;;;9.85;2.55;;;;;;;8.85;60.21;102730.19;5377546;26;20072;-70
2024/04/11 08:56:16;;;;;;;8.48;2.80;;;;;;;9.08;59.71;102737.03;5390245;26;20232;-70
2024/04/11 08:58:43;;;;;;;6.05;2.30;;;;;;;9.37;59.03;102740.38;5347298;26;20022;-71
2024/04/11 09:01:10;;;;;;;13.13;2.90;;;;;;;8.72;59.95;102734.53;5354136;26;20081;-70
2024/04/11 09:03:35;;;;;;;7.38;2.70;;;;;;;9.28;59.33;102744.78;5379963;26;20087;-70
2024/04/11 09:06:01;;;;;;;10.32;3.17;;;;;;;10.73;56.76;102745.44;5397112;26;20042;-70
2024/04/11 09:08:28;;;;;;;6.90;2.70;;;;;;;9.83;57.46;102743.59;5376939;26;20433;-70
2024/04/11 09:10:55;;;;;;;8.90;2.67;;;;;;;9.79;56.95;102743.66;5396966;26;20021;-70
2024/04/11 09:13:23;;;;;;;7.35;3.00;;;;;;;9.11;59.00;102750.91;5381332;26;20064;-70
2024/04/11 09:16:05;;;;;;;7.75;3.08;;;;;;;8.70;60.86;102764.06;5392779;26;20018;-69
2024/04/11 09:18:31;;;;;;;12.73;3.60;;;;;;;9.60;58.73;102761.13;5372865;26;20045;-70
2024/04/11 09:21:04;;;;;;;5.28;2.03;;;;;;;9.65;58.58;102766.31;5393492;26;20237;-70
2024/04/11 09:23:47;;;;;;;12.52;2.78;;;;;;;9.79;58.24;102768.88;5373383;26;22037;-70
2024/04/11 09:26:14;;;;;;;10.13;2.75;;;;;;;9.37;59.32;102781.28;5393133;26;20017;-69
2024/04/11 09:28:43;;;;;;;4.60;2.38;;;;;;;9.89;58.21;102780.13;5324050;26;20000;-69
2024/04/11 09:31:09;;;;;;;8.98;2.38;;;;;;;10.01;57.17;102774.81;5365340;26;20019;-70
2024/04/11 09:33:39;;;;;;;6.25;2.53;;;;;;;9.56;58.56;102771.59;5379274;26;20937;-70
2024/04/11 09:36:09;;;;;;;12.38;2.13;;;;;;;10.14;57.53;102773.84;5336034;26;20373;-70
2024/04/11 09:38:42;;;;;;;8.13;2.80;;;;;;;9.60;58.58;102788.97;5318075;26;20329;-70
2024/04/11 09:41:11;;;;;;;6.60;2.60;;;;;;;10.14;56.88;102796.50;5334825;26;20000;-70
2024/04/11 09:43:41;;;;;;;3.95;2.20;;;;;;;10.39;56.72;102797.16;5349350;26;21103;-71
2024/04/11 09:46:08;;;;;;;5.20;2.65;;;;;;;10.56;56.18;102815.31;5331308;26;20008;-70
2024/04/11 09:48:38;;;;;;;5.30;2.78;;;;;;;10.76;56.60;102805.53;5369070;25;20057;-70
2024/04/11 09:51:05;;;;;;;7.80;2.63;;;;;;;10.34;57.36;102804.19;5398947;26;19998;-70
2024/04/11 09:53:36;;;;;;;4.80;2.78;;;;;;;10.52;56.67;102798.78;5335525;26;20015;-69
2024/04/11 09:56:05;;;;;;;9.13;3.17;;;;;;;10.13;57.01;102800.00;5371656;26;19999;-70
2024/04/11 09:58:38;;;;;;;8.38;2.85;;;;;;;10.42;56.80;102807.59;5374683;26;20633;-70
2024/04/11 10:01:30;;;;;;;7.78;2.92;;;;;;;10.55;56.81;102805.75;5397952;26;20763;-69
2024/04/11 10:04:00;;;;;;;9.20;2.95;;;;;;;9.94;58.64;102812.31;5396348;26;19998;-70
2024/04/11 10:06:29;;;;;;;6.15;2.95;;;;;;;10.64;57.55;102814.38;5417436;26;20020;-70
2024/04/11 10:09:11;;;;;;;8.23;3.20;;;;;;;10.40;57.43;102815.47;5383853;26;21087;-70
2024/04/11 10:11:37;;;;;;;7.00;3.90;;;;;;;10.03;58.95;102814.84;5346862;26;20007;-70
2024/04/11 10:14:05;;;;;;;7.22;3.40;;;;;;;9.95;58.73;102809.69;5367681;26;20573;-70
2024/04/11 10:16:37;;;;;;;4.22;2.50;;;;;;;9.85;59.58;102814.97;5361349;26;19999;-70
2024/04/11 10:19:07;;;;;;;8.00;2.75;;;;;;;10.12;58.57;102801.72;5391792;26;19994;-70
2024/04/11 10:21:33;;;;;;;9.05;3.38;;;;;;;10.22;58.25;102813.84;5379943;26;20439;-69
2024/04/11 10:24:23;;;;;;;8.93;3.88;;;;;;;10.76;58.00;102825.59;5424726;26;20771;-70
2024/04/11 10:26:50;;;;;;;6.20;3.22;;;;;;;10.90;57.89;102820.25;5376028;26;20010;-70
2024/04/11 10:29:20;;;;;;;7.13;2.70;;;;;;;10.06;59.50;102819.19;5330594;26;20474;-69
2024/04/11 10:31:58;;;;;;;8.38;3.70;;;;;;;10.92;57.16;102826.34;5361307;26;20738;-70
2024/04/11 10:34:37;;;;;;;9.00;3.85;;;;;;;10.27;58.95;102836.47;5385927;26;20003;-70
2024/04/11 10:37:03;;;;;;;10.90;3.65;;;;;;;10.56;58.18;102824.03;5390034;26;20058;-69
2024/04/11 10:39:35;;;;;;;7.00;3.25;;;;;;;10.81;57.80;102827.31;5391080;26;20022;-70
2024/04/11 10:42:02;;;;;;;6.55;3.53;;;;;;;10.70;57.87;102816.06;5383714;26;20022;-70
2024/04/11 10:44:28;;;;;;;8.48;3.47;;;;;;;10.16;59.49;102821.72;5389125;26;20009;-70
2024/04/11 10:46:55;;;;;;;6.18;4.13;;;;;;;10.89;57.47;102829.88;5380169;26;20006;-70
2024/04/11 10:49:28;;;;;;;8.52;4.03;;;;;;;11.04;57.28;102832.31;5380911;26;20007;-69
2024/04/11 10:51:58;;;;;;;8.18;3.83;;;;;;;10.70;58.68;102830.88;5380762;26;20948;-69
2024/04/11 10:54:26;;;;;;;8.98;3.90;;;;;;;10.31;59.74;102836.44;5383330;26;20035;-70
2024/04/11 10:56:54;;;;;;;8.52;4.15;;;;;;;10.38;59.64;102842.50;5371330;26;20002;-70
2024/04/11 10:59:26;;;;;;;9.32;4.35;;;;;;;10.38;59.04;102845.09;5392096;26;20089;-72
2024/04/11 11:02:00;;;;;;;;;;;;;;;10.78;58.58;102847.38;5377713;26;20068;-70
2024/04/11 11:04:29;;;;;;;9.52;4.80;;;;;;;11.09;57.71;102850.59;5386111;26;20540;-70
2024/04/11 11:06:59;;;;;;;10.10;4.00;;;;;;;10.86;57.88;102850.84;5391178;25;20070;-69
2024/04/11 11:09:30;;;;;;;9.10;4.45;;;;;;;10.79;58.91;102854.34;5366213;26;20002;-69
2024/04/11 11:11:56;;;;;;;9.32;3.63;;;;;;;10.75;58.48;102858.75;5383063;26;20007;-70
2024/04/11 11:14:25;;;;;;;11.60;4.03;;;;;;;11.10;58.04;102865.41;5390338;26;20062;-70
2024/04/11 11:16:51;;;;;;;5.30;3.67;;;;;;;10.87;58.84;102864.78;5372270;26;20633;-70
2024/04/11 11:19:17;;;;;;;6.45;3.78;;;;;;;10.97;58.43;102875.13;5348872;26;20010;-69
2024/04/11 11:21:50;;;;;;;7.78;4.47;;;;;;;11.17;58.60;102879.28;5333968;26;20011;-70
2024/04/11 11:24:23;;;;;;;10.20;4.90;;;;;;;10.64;59.72;102882.38;5370547;26;20304;-70
2024/04/11 11:26:54;;;;;;;5.55;3.55;;;;;;;10.26;61.42;102890.50;5348798;26;20038;-70
2024/04/11 11:29:25;;;;;;;10.40;4.05;;;;;;;10.34;61.42;102887.81;5397591;26;19999;-70
2024/04/11 11:32:04;;;;;;;7.38;4.57;;;;;;;10.76;60.13;102885.75;5407878;26;21500;-70
2024/04/11 11:34:42;;;;;;;9.60;4.57;;;;;;;10.59;60.97;102883.28;5390407;26;20014;-70
2024/04/11 11:37:12;;;;;;;5.63;4.28;;;;;;;11.32;59.47;102878.25;5388369;26;20146;-70